Terminal Aerodrome Forecast
Issued by NWS

Home | Current Version | Previous Version | Text Only | Print | Product List | Glossary On
Versions: 1 2 3 4 5 6 7 8 9 10 11 12 13 14 15 16
000
FTUS45 KABQ 291100
TAFFMN
TAF
KFMN 291126Z 2912/3012 06005KT P6SM BKN070
     FM291700 29010KT P6SM VCSH BKN070
     FM292000 29011G19KT P6SM SCT070
     FM300100 10007KT P6SM SCT150=

USA.gov is the U.S. government's official web portal to all federal, state and local government web resources and services.